Time;durP1;ratioP1;P1;durP2;ratioP2;P2;SDS_P1;SDS_P2;PMS_P1;PMS_P2;Temp;Humidity;BMP_temperature;BMP_pressure;BME280_temperature;BME280_humidity;BME280_pressure;Samples;Min_cycle;Max_cycle;Signal;HPM_P1;HPM_P2
2024/01/14 00:02:09;;;;;;;3.03;2.90;;;;;;;-3.19;100.00;100643.50;5026831;28;20040;-75
2024/01/14 00:04:34;;;;;;;1.08;0.82;;;;;;;-3.87;100.00;100530.94;5023354;28;20154;-77
2024/01/14 00:07:00;;;;;;;2.28;0.70;;;;;;;-3.14;100.00;100638.63;5027080;28;20048;-77
2024/01/14 00:09:25;;;;;;;0.40;0.40;;;;;;;-3.21;100.00;100630.59;5032568;28;20496;-75
2024/01/14 00:11:51;;;;;;;0.88;0.88;;;;;;;-3.17;100.00;100631.66;5031547;28;20496;-75
2024/01/14 00:14:16;;;;;;;4.20;4.00;;;;;;;-3.09;100.00;100609.00;5026113;28;20470;-76
2024/01/14 00:16:43;;;;;;;28.75;12.07;;;;;;;-3.33;100.00;100598.19;5030119;28;20040;-78
2024/01/14 00:19:09;;;;;;;1.88;1.77;;;;;;;-3.79;100.00;100501.53;5037395;28;20489;-77
2024/01/14 00:21:35;;;;;;;10.68;9.82;;;;;;;-3.36;100.00;100577.50;5026132;28;20042;-77
2024/01/14 00:24:04;;;;;;;0.40;0.40;;;;;;;-3.28;100.00;100596.78;5027083;28;20152;-77
2024/01/14 00:26:30;;;;;;;4.45;4.25;;;;;;;-3.22;100.00;100599.72;5022461;28;20041;-76
2024/01/14 00:28:58;;;;;;;0.32;0.32;;;;;;;-3.79;100.00;100503.19;5032289;28;20083;-76
2024/01/14 00:31:25;;;;;;;0.65;0.65;;;;;;;-3.56;100.00;100543.00;5028106;28;20037;-76
2024/01/14 00:33:51;;;;;;;9.82;9.20;;;;;;;-3.27;100.00;100591.75;5028752;28;20049;-76
2024/01/14 00:36:17;;;;;;;2.25;2.15;;;;;;;-3.78;100.00;100487.91;5024744;28;20065;-75
2024/01/14 00:38:44;;;;;;;4.05;3.85;;;;;;;-3.90;100.00;100446.19;5024420;28;20096;-76
2024/01/14 00:41:10;;;;;;;1.10;1.10;;;;;;;-3.32;100.00;100557.25;5024097;28;20740;-78
2024/01/14 00:43:36;;;;;;;2.08;1.88;;;;;;;-3.92;100.00;100453.78;5029950;28;20038;-76
2024/01/14 00:46:02;;;;;;;1.15;1.15;;;;;;;-4.02;100.00;100459.16;5011987;28;20053;-76
2024/01/14 00:48:29;;;;;;;1.55;1.45;;;;;;;-3.49;100.00;100555.38;5023648;28;20509;-76
2024/01/14 00:50:54;;;;;;;2.47;2.38;;;;;;;-3.34;100.00;100556.28;5039244;28;20037;-75
2024/01/14 00:53:20;;;;;;;0.40;0.40;;;;;;;-3.49;100.00;100520.38;5036192;28;20053;-78
2024/01/14 00:55:47;;;;;;;18.10;17.15;;;;;;;-3.28;100.00;100555.72;5019941;28;20040;-78
2024/01/14 00:58:12;;;;;;;0.45;0.40;;;;;;;-3.35;100.00;100545.91;5024963;28;20057;-76
2024/01/14 01:00:38;;;;;;;1.63;1.58;;;;;;;-3.69;100.00;100532.03;5017362;28;20060;-78
2024/01/14 01:03:04;;;;;;;1.45;1.33;;;;;;;-3.42;100.00;100557.50;5024421;28;20700;-77
2024/01/14 01:05:29;;;;;;;0.40;0.40;;;;;;;-4.07;100.00;100463.13;5013309;28;20057;-77
2024/01/14 01:07:55;;;;;;;6.95;3.72;;;;;;;-3.38;100.00;100530.34;5022970;28;20441;-76
2024/01/14 01:10:20;;;;;;;0.50;0.50;;;;;;;-4.11;100.00;100413.38;5018768;28;20107;-76
2024/01/14 01:12:46;;;;;;;3.28;3.13;;;;;;;-3.98;100.00;100434.59;5021308;28;20037;-76
2024/01/14 01:15:12;;;;;;;1.52;1.42;;;;;;;-3.75;100.00;100518.81;5021950;28;20136;-77
2024/01/14 01:17:38;;;;;;;0.80;0.80;;;;;;;-4.36;100.00;100431.53;5021969;28;20064;-76
2024/01/14 01:20:05;;;;;;;1.23;1.23;;;;;;;-4.25;100.00;100401.44;5015308;28;20049;-77
2024/01/14 01:22:30;;;;;;;0.43;0.43;;;;;;;-3.73;100.00;100489.03;5026142;28;20048;-76
2024/01/14 01:24:56;;;;;;;0.50;0.50;;;;;;;-3.51;100.00;100504.00;5017111;28;20387;-76
2024/01/14 01:27:22;;;;;;;0.30;0.30;;;;;;;-3.59;100.00;100506.91;5021815;28;20053;-75
2024/01/14 01:29:47;;;;;;;2.60;2.38;;;;;;;-3.65;100.00;100458.75;5027000;28;20048;-74
2024/01/14 01:32:13;;;;;;;0.45;0.45;;;;;;;-3.98;100.00;100419.22;5024965;28;20048;-75
2024/01/14 01:34:38;;;;;;;2.78;2.67;;;;;;;-3.38;100.00;100522.66;5021036;28;20064;-76
2024/01/14 01:37:04;;;;;;;0.40;0.40;;;;;;;-3.84;100.00;100457.69;5020928;28;20053;-75
2024/01/14 01:39:31;;;;;;;0.32;0.30;;;;;;;-3.54;100.00;100490.09;5016968;28;20107;-76
2024/01/14 01:41:57;;;;;;;0.40;0.40;;;;;;;-3.68;100.00;100463.66;5015764;28;20059;-75
2024/01/14 01:44:23;;;;;;;1.13;1.02;;;;;;;-3.40;100.00;100499.47;5019927;28;20532;-76
2024/01/14 01:46:49;;;;;;;1.45;1.40;;;;;;;-3.34;100.00;100515.22;5020549;28;20045;-76
2024/01/14 01:49:15;;;;;;;0.82;0.82;;;;;;;-3.31;100.00;100512.81;5023216;28;20107;-75
2024/01/14 01:51:44;;;;;;;0.47;0.47;;;;;;;-3.98;100.00;100438.06;5013438;28;20041;-77
2024/01/14 01:54:11;;;;;;;16.75;15.43;;;;;;;-3.46;100.00;100497.47;5012868;28;20057;-75
2024/01/14 01:56:38;;;;;;;0.68;0.68;;;;;;;-3.54;100.00;100496.13;5030246;28;20064;-76
2024/01/14 01:59:05;;;;;;;0.82;0.82;;;;;;;-3.69;100.00;100467.03;5034713;28;20458;-75
2024/01/14 02:01:32;;;;;;;8.75;8.30;;;;;;;-4.00;100.00;100402.84;5023595;28;20030;-76
2024/01/14 02:04:00;;;;;;;0.50;0.50;;;;;;;-4.15;100.00;100359.31;5021691;28;20056;-77
2024/01/14 02:06:27;;;;;;;0.40;0.40;;;;;;;-4.06;100.00;100390.59;5025277;28;20060;-76
2024/01/14 02:08:54;;;;;;;3.45;1.95;;;;;;;-3.65;100.00;100474.13;5028867;28;20049;-76
2024/01/14 02:11:20;;;;;;;2.78;2.67;;;;;;;-4.44;100.00;100311.53;5019817;28;20572;-76
2024/01/14 02:13:46;;;;;;;0.73;0.73;;;;;;;-3.75;100.00;100449.59;5036922;28;20037;-76
2024/01/14 02:16:12;;;;;;;0.95;0.95;;;;;;;-4.20;100.00;100356.47;5028318;28;20053;-76
2024/01/14 02:18:38;;;;;;;16.23;11.75;;;;;;;-4.40;100.00;100349.31;5027494;28;20077;-76
2024/01/14 02:21:04;;;;;;;2.88;2.67;;;;;;;-4.20;100.00;100356.47;5036149;28;20089;-75
2024/01/14 02:23:35;;;;;;;10.52;8.65;;;;;;;-4.03;100.00;100383.97;5033249;28;20049;-75
2024/01/14 02:26:01;;;;;;;0.45;0.45;;;;;;;-5.43;100.00;100142.06;5034219;28;20052;-76
2024/01/14 02:28:26;;;;;;;8.38;7.85;;;;;;;-4.05;100.00;100365.06;5013709;28;20477;-76
2024/01/14 02:30:53;;;;;;;0.50;0.50;;;;;;;-3.92;100.00;100453.78;5027443;28;20045;-76
2024/01/14 02:33:20;;;;;;;5.95;5.55;;;;;;;-3.66;100.00;100450.13;5027335;28;20537;-76
2024/01/14 02:35:45;;;;;;;0.52;0.50;;;;;;;-3.66;100.00;100434.75;5028863;28;20496;-76
2024/01/14 02:38:11;;;;;;;1.33;1.23;;;;;;;-4.11;100.00;100351.00;5037906;28;20033;-77
2024/01/14 02:40:36;;;;;;;0.47;0.47;;;;;;;-4.31;100.00;100309.78;5029471;28;20196;-76
2024/01/14 02:43:02;;;;;;;1.83;1.73;;;;;;;-3.72;100.00;100441.22;5032994;28;20157;-76
2024/01/14 02:45:31;;;;;;;1.60;1.50;;;;;;;-3.76;100.00;100413.66;5027627;28;20087;-76
2024/01/14 02:47:57;;;;;;;4.30;4.00;;;;;;;-3.51;100.00;100433.84;5029228;28;20468;-76
2024/01/14 02:50:22;;;;;;;0.63;0.63;;;;;;;-4.28;100.00;100342.38;5027086;28;20054;-76
2024/01/14 02:52:48;;;;;;;2.65;2.45;;;;;;;-3.69;100.00;100420.91;5026342;28;20033;-77
2024/01/14 02:55:14;;;;;;;5.28;5.03;;;;;;;-3.77;100.00;100430.72;5027119;28;20077;-75
2024/01/14 02:57:39;;;;;;;0.38;0.38;;;;;;;-4.37;100.00;100298.28;5024448;28;20054;-76
2024/01/14 03:00:06;;;;;;;2.15;2.05;;;;;;;-4.00;100.00;100347.38;5034606;28;20144;-76
2024/01/14 03:02:32;;;;;;;1.23;1.23;;;;;;;-3.73;100.00;100399.31;5029914;28;20091;-76
2024/01/14 03:04:58;;;;;;;0.30;0.30;;;;;;;-3.75;100.00;100412.84;5035950;28;20476;-76
2024/01/14 03:07:23;;;;;;;0.30;0.30;;;;;;;-3.65;100.00;100417.72;5033420;28;20115;-78
2024/01/14 03:09:50;;;;;;;4.70;4.50;;;;;;;-4.47;100.00;100307.13;5027369;28;20633;-78
2024/01/14 03:12:15;;;;;;;0.47;0.47;;;;;;;-5.00;100.00;100233.19;5035197;28;20625;-77
2024/01/14 03:14:41;;;;;;;1.67;1.23;;;;;;;-4.53;100.00;100296.50;5032948;28;20928;-76
2024/01/14 03:17:06;;;;;;;7.80;2.65;;;;;;;-3.73;100.00;100399.31;5024003;28;20507;-76
2024/01/14 03:19:32;;;;;;;0.82;0.82;;;;;;;-4.42;100.00;100284.34;5037032;28;20427;-75
2024/01/14 03:21:59;;;;;;;8.85;8.45;;;;;;;-3.66;100.00;100392.84;5023101;28;20053;-75
2024/01/14 03:24:25;;;;;;;0.40;0.40;;;;;;;-4.43;100.00;100280.88;5027124;28;20045;-76
2024/01/14 03:26:51;;;;;;;11.30;2.25;;;;;;;-3.78;100.00;100379.34;5021132;28;20076;-76
2024/01/14 03:29:16;;;;;;;0.30;0.30;;;;;;;-3.86;100.00;100371.25;5023063;28;20842;-75
2024/01/14 03:31:42;;;;;;;0.40;0.40;;;;;;;-3.68;100.00;100382.50;5027228;28;20592;-76
2024/01/14 03:34:07;;;;;;;0.32;0.30;;;;;;;-3.85;100.00;100355.94;5024804;28;20053;-77
2024/01/14 03:36:33;;;;;;;22.02;20.10;;;;;;;-4.33;100.00;100270.38;5024780;28;20049;-77
2024/01/14 03:38:58;;;;;;;0.30;0.30;;;;;;;-3.83;100.00;100359.47;5026534;28;20151;-77
2024/01/14 03:41:24;;;;;;;2.15;2.05;;;;;;;-4.20;100.00;100278.75;5024727;28;20543;-76
2024/01/14 03:43:49;;;;;;;0.85;0.75;;;;;;;-3.96;100.00;100338.19;5031109;28;20557;-75
2024/01/14 03:46:15;;;;;;;0.63;0.60;;;;;;;-3.88;100.00;100344.63;5023700;28;20091;-76
2024/01/14 03:48:40;;;;;;;1.90;1.80;;;;;;;-3.73;100.00;100362.53;5031166;28;20622;-75
2024/01/14 03:51:06;;;;;;;0.32;0.32;;;;;;;-4.20;100.00;100248.00;5024359;28;20045;-75
2024/01/14 03:53:32;;;;;;;4.75;4.32;;;;;;;-4.80;100.00;100142.22;5023331;28;20132;-76
2024/01/14 03:55:57;;;;;;;1.58;1.48;;;;;;;-4.30;100.00;100239.81;5031768;28;20537;-76
2024/01/14 03:58:23;;;;;;;2.33;2.15;;;;;;;-3.66;100.00;100351.84;5032872;28;20436;-77
2024/01/14 04:00:48;;;;;;;2.65;2.55;;;;;;;-3.90;100.00;100329.16;5009752;28;20084;-76
2024/01/14 04:03:15;;;;;;;1.85;1.75;;;;;;;-3.90;100.00;100321.47;5034756;28;20180;-76
2024/01/14 04:05:41;;;;;;;2.15;2.05;;;;;;;-4.49;100.00;100219.09;5025025;28;20053;-77
2024/01/14 04:08:06;;;;;;;0.73;0.73;;;;;;;-4.25;100.00;100283.63;5018216;28;20117;-76
2024/01/14 04:10:32;;;;;;;0.70;0.70;;;;;;;-3.78;100.00;100343.47;5023958;28;20029;-76
2024/01/14 04:12:57;;;;;;;4.18;3.95;;;;;;;-4.42;100.00;100217.78;5030747;28;20060;-76
2024/01/14 04:15:24;;;;;;;25.42;10.55;;;;;;;-3.82;100.00;100322.81;5025393;28;20046;-76
2024/01/14 04:17:50;;;;;;;6.93;6.57;;;;;;;-4.50;100.00;100197.72;5023799;28;20080;-76
2024/01/14 04:20:15;;;;;;;0.60;0.60;;;;;;;-4.25;100.00;100224.72;5021746;28;20084;-76
2024/01/14 04:22:41;;;;;;;1.40;1.40;;;;;;;-3.91;100.00;100309.47;5027507;28;20033;-77
2024/01/14 04:25:07;;;;;;;1.00;1.00;;;;;;;-3.81;100.00;100316.00;5004186;28;20049;-75
2024/01/14 04:27:34;;;;;;;3.13;3.03;;;;;;;-3.78;100.00;100321.28;5021802;28;20049;-75
2024/01/14 04:30:00;;;;;;;8.70;8.25;;;;;;;-4.36;100.00;100201.03;5026334;28;20038;-78
2024/01/14 04:32:25;;;;;;;0.93;0.93;;;;;;;-4.16;100.00;100245.72;5032924;28;20056;-76
2024/01/14 04:34:51;;;;;;;1.75;1.67;;;;;;;-4.55;100.00;100183.78;5040576;28;20033;-76
2024/01/14 04:37:16;;;;;;;1.45;1.35;;;;;;;-4.44;100.00;100202.31;5021685;28;20555;-76
2024/01/14 04:39:42;;;;;;;0.68;0.68;;;;;;;-4.30;100.00;100213.31;5022930;28;20050;-76
2024/01/14 04:42:07;;;;;;;1.77;1.67;;;;;;;-3.72;100.00;100310.47;5029177;28;20045;-76
2024/01/14 04:44:34;;;;;;;0.73;0.73;;;;;;;-4.18;100.00;100218.25;5030974;28;20804;-76
2024/01/14 04:46:59;;;;;;;0.50;0.50;;;;;;;-4.20;100.00;100200.22;5026461;28;20055;-76
2024/01/14 04:49:25;;;;;;;2.00;1.90;;;;;;;-3.91;100.00;100255.66;5028656;28;20048;-76
2024/01/14 04:51:50;;;;;;;0.73;0.73;;;;;;;-4.37;100.00;100193.28;5006340;28;20405;-77
2024/01/14 04:54:16;;;;;;;0.40;0.40;;;;;;;-3.67;100.00;100297.13;5026863;28;20049;-77
2024/01/14 04:56:41;;;;;;;1.15;1.15;;;;;;;-4.38;100.00;100178.72;5026121;28;20688;-77
2024/01/14 04:59:07;;;;;;;0.40;0.40;;;;;;;-3.65;100.00;100299.78;5032084;28;20657;-77
2024/01/14 05:01:33;;;;;;;2.80;2.70;;;;;;;-4.37;100.00;100188.19;5013299;28;20771;-77
2024/01/14 05:03:59;;;;;;;6.53;2.25;;;;;;;-3.89;100.00;100273.66;5021650;28;20053;-77
2024/01/14 05:06:25;;;;;;;4.88;4.68;;;;;;;-4.35;100.00;100159.28;5035882;28;20049;-76
2024/01/14 05:08:50;;;;;;;11.07;10.55;;;;;;;-3.97;100.00;100239.94;5020339;28;20083;-76
2024/01/14 05:11:16;;;;;;;0.40;0.40;;;;;;;-3.78;100.00;100295.63;5017513;28;20525;-75
2024/01/14 05:13:42;;;;;;;3.30;3.20;;;;;;;-3.69;100.00;100273.06;5026044;28;20029;-76
2024/01/14 05:16:08;;;;;;;15.30;13.75;;;;;;;-3.83;100.00;100280.00;5013458;28;20061;-76
2024/01/14 05:18:33;;;;;;;0.55;0.55;;;;;;;-3.71;100.00;100294.31;5025427;28;20049;-75
2024/01/14 05:20:59;;;;;;;0.30;0.30;;;;;;;-4.43;100.00;100178.44;5022286;28;20045;-75
2024/01/14 05:23:24;;;;;;;0.95;0.95;;;;;;;-4.23;100.00;100183.81;5021035;28;20163;-76
2024/01/14 05:25:50;;;;;;;0.50;0.50;;;;;;;-4.38;100.00;100171.03;5032315;28;20099;-76
2024/01/14 05:28:15;;;;;;;3.47;3.30;;;;;;;-4.77;100.00;100147.53;5025799;28;20077;-75
2024/01/14 05:30:41;;;;;;;0.40;0.40;;;;;;;-4.04;100.00;100245.50;5026259;28;20065;-76
2024/01/14 05:33:06;;;;;;;0.40;0.40;;;;;;;-4.57;100.00;100156.31;5033527;28;20144;-76
2024/01/14 05:35:32;;;;;;;0.32;0.32;;;;;;;-4.03;100.00;100249.81;5035881;28;20045;-76
2024/01/14 05:37:58;;;;;;;0.55;0.55;;;;;;;-4.16;100.00;100296.94;5034056;28;20029;-76
2024/01/14 05:40:23;;;;;;;3.00;2.80;;;;;;;-4.04;100.00;100272.00;5022692;28;20060;-76
2024/01/14 05:42:49;;;;;;;2.75;2.65;;;;;;;-3.93;100.00;100276.88;5027411;28;20531;-76
2024/01/14 05:45:15;;;;;;;0.40;0.40;;;;;;;-4.07;100.00;100271.84;5019885;28;20052;-76
2024/01/14 05:47:40;;;;;;;0.40;0.38;;;;;;;-4.11;100.00;100251.97;5023036;28;20050;-76
2024/01/14 05:50:07;;;;;;;5.68;5.45;;;;;;;-4.25;100.00;100274.25;5023581;28;20033;-77
2024/01/14 05:52:33;;;;;;;3.90;3.70;;;;;;;-4.28;100.00;100268.09;5015072;28;20111;-76
2024/01/14 05:54:59;;;;;;;0.80;0.80;;;;;;;-4.85;100.00;100156.44;5019287;28;20495;-77
2024/01/14 05:57:24;;;;;;;0.93;0.93;;;;;;;-4.47;100.00;100264.47;5023879;28;20041;-76
2024/01/14 05:59:50;;;;;;;6.05;5.75;;;;;;;-4.56;100.00;100243.47;5020012;28;20794;-76
2024/01/14 06:02:15;;;;;;;52.80;21.80;;;;;;;-4.12;100.00;100262.13;5025641;28;20493;-75
2024/01/14 06:04:41;;;;;;;0.77;0.77;;;;;;;-4.38;100.00;100227.38;5025570;28;20033;-76
2024/01/14 06:07:06;;;;;;;0.40;0.40;;;;;;;-4.49;100.00;100217.41;5021565;28;20136;-76
2024/01/14 06:09:32;;;;;;;0.32;0.32;;;;;;;-5.56;100.00;100015.19;5026604;28;20509;-76
2024/01/14 06:11:57;;;;;;;0.40;0.40;;;;;;;-4.30;100.00;100270.53;5017712;28;20046;-76
2024/01/14 06:14:23;;;;;;;0.32;0.32;;;;;;;-4.75;100.00;100197.13;5027826;28;20045;-76
2024/01/14 06:16:48;;;;;;;1.25;1.25;;;;;;;-4.67;100.00;100157.50;5023946;28;20084;-75
2024/01/14 06:19:14;;;;;;;1.48;1.10;;;;;;;-4.65;100.00;100186.63;5027519;28;20769;-76
2024/01/14 06:21:41;;;;;;;11.45;10.70;;;;;;;-3.99;100.00;100256.91;5024721;28;20556;-75
2024/01/14 06:24:07;;;;;;;1.48;1.38;;;;;;;-4.28;100.00;100227.97;5029005;28;20061;-76
2024/01/14 06:26:33;;;;;;;0.30;0.30;;;;;;;-4.72;100.00;100141.88;5023737;28;20087;-76
2024/01/14 06:28:58;;;;;;;1.65;1.60;;;;;;;-4.59;100.00;100137.44;5026531;28;20045;-75
2024/01/14 06:31:24;;;;;;;5.35;5.15;;;;;;;-3.95;100.00;100245.16;5028002;28;20032;-76
2024/01/14 06:33:49;;;;;;;0.77;0.77;;;;;;;-4.12;100.00;100228.81;5023881;28;20049;-75
2024/01/14 06:36:19;;;;;;;0.40;0.40;;;;;;;-4.38;100.00;100127.50;5030947;28;20053;-75
2024/01/14 06:38:44;;;;;;;0.30;0.30;;;;;;;-3.88;100.00;100231.88;5021867;28;20089;-76
2024/01/14 06:41:16;;;;;;;0.55;0.55;;;;;;;-3.99;100.00;100199.66;5030290;28;20029;-76
2024/01/14 06:43:42;;;;;;;0.40;0.40;;;;;;;-3.45;100.00;100258.13;5030804;28;20040;-75
2024/01/14 06:46:07;;;;;;;0.40;0.40;;;;;;;-4.28;100.00;100133.22;5022049;28;20053;-77
2024/01/14 06:48:33;;;;;;;0.57;0.57;;;;;;;-3.41;100.00;100267.75;5020838;28;20041;-76
2024/01/14 06:51:02;;;;;;;0.57;0.57;;;;;;;-3.30;100.00;100259.72;5023396;28;20050;-76
2024/01/14 06:53:27;;;;;;;5.25;4.95;;;;;;;-4.00;100.00;100150.09;5020043;28;23516;-77
2024/01/14 06:55:52;;;;;;;2.08;1.98;;;;;;;-4.15;100.00;100164.63;5026758;28;20444;-76
2024/01/14 06:58:18;;;;;;;7.90;7.28;;;;;;;-3.61;100.00;100176.06;5027612;28;20053;-75
2024/01/14 07:00:44;;;;;;;12.55;8.48;;;;;;;-3.40;100.00;100215.63;5025406;28;20120;-77
2024/01/14 07:03:11;;;;;;;0.57;0.57;;;;;;;-3.37;100.00;100245.72;5024835;28;20108;-77
2024/01/14 07:05:36;;;;;;;4.55;4.25;;;;;;;-3.82;100.00;100169.00;5024070;28;20202;-76
2024/01/14 07:08:04;;;;;;;0.50;0.50;;;;;;;-3.84;100.00;100115.88;5022509;28;20797;-77
2024/01/14 07:10:30;;;;;;;2.58;2.47;;;;;;;-3.08;100.00;100218.13;5028223;28;20068;-77
2024/01/14 07:12:56;;;;;;;0.82;0.82;;;;;;;-3.20;100.00;100229.50;5023882;28;20056;-76
2024/01/14 07:15:21;;;;;;;2.20;2.10;;;;;;;-3.55;100.00;100125.09;5029879;28;20055;-76
2024/01/14 07:17:48;;;;;;;0.40;0.40;;;;;;;-2.88;100.00;100227.72;5023566;28;20045;-76
2024/01/14 07:20:13;;;;;;;0.30;0.30;;;;;;;-3.20;100.00;100174.75;5029592;28;20092;-77
2024/01/14 07:22:39;;;;;;;0.65;0.65;;;;;;;-3.49;100.00;100116.81;5024079;28;20069;-77
2024/01/14 07:25:05;;;;;;;0.73;0.73;;;;;;;-3.04;100.00;100194.41;5023598;28;20105;-76
2024/01/14 07:27:30;;;;;;;0.40;0.40;;;;;;;-3.35;100.00;100100.44;5029848;28;20041;-73
2024/01/14 07:29:57;;;;;;;0.40;0.40;;;;;;;-3.09;100.00;100112.03;5022543;28;20453;-73
2024/01/14 07:32:22;;;;;;;3.05;2.85;;;;;;;-2.82;100.00;100168.09;5024738;28;20073;-73
2024/01/14 07:34:48;;;;;;;1.38;1.27;;;;;;;-2.88;100.00;100155.84;5003257;28;20176;-73
2024/01/14 07:37:13;;;;;;;0.50;0.50;;;;;;;-2.77;100.00;100200.88;5015713;28;20077;-74
2024/01/14 07:39:39;;;;;;;0.40;0.40;;;;;;;-2.65;100.00;100185.19;5019633;28;20049;-71
2024/01/14 07:42:05;;;;;;;0.30;0.30;;;;;;;-2.45;100.00;100203.28;5022740;28;20045;-72
2024/01/14 07:44:30;;;;;;;1.30;1.30;;;;;;;-2.36;100.00;100202.03;5016708;28;20157;-72
2024/01/14 07:46:56;;;;;;;0.98;0.98;;;;;;;-2.85;100.00;100101.22;5019489;28;20137;-73
2024/01/14 07:49:21;;;;;;;6.97;6.57;;;;;;;-2.58;100.00;100135.88;5018324;28;24162;-73
2024/01/14 07:51:47;;;;;;;0.57;0.57;;;;;;;-2.41;100.00;100169.22;5018459;28;20046;-73
2024/01/14 07:54:12;;;;;;;2.05;1.95;;;;;;;-2.62;100.00;100085.22;5021146;28;20122;-73
2024/01/14 07:56:38;;;;;;;0.30;0.30;;;;;;;-1.96;100.00;100170.50;5026448;28;20657;-73
2024/01/14 07:59:03;;;;;;;1.40;1.30;;;;;;;-2.00;100.00;100191.72;5024118;28;20063;-73
2024/01/14 08:01:30;;;;;;;0.50;0.50;;;;;;;-1.88;100.00;100187.97;5022079;28;20033;-72
2024/01/14 08:03:55;;;;;;;2.65;2.50;;;;;;;-2.59;100.00;100067.38;5023778;28;20046;-72
2024/01/14 08:06:24;;;;;;;0.35;0.35;;;;;;;-2.45;100.00;100091.13;5019534;28;20121;-71
2024/01/14 08:08:50;;;;;;;0.40;0.40;;;;;;;-1.85;100.00;100180.38;5019097;28;20061;-74
2024/01/14 08:11:16;;;;;;;0.77;0.77;;;;;;;-2.11;100.00;100144.06;5018350;28;20060;-75
2024/01/14 08:13:42;;;;;;;0.32;0.32;;;;;;;-1.89;100.00;100158.81;5010000;28;20090;-73
2024/01/14 08:16:08;;;;;;;2.65;2.53;;;;;;;-1.93;100.00;100116.66;5017569;28;20046;-74
2024/01/14 08:18:35;;;;;;;2.10;2.03;;;;;;;-2.24;100.00;100060.41;5008551;28;20049;-77
2024/01/14 08:21:00;;;;;;;1.95;1.85;;;;;;;-1.50;100.00;100154.59;4998804;28;20044;-77
2024/01/14 08:23:28;;;;;;;0.43;0.43;;;;;;;-1.75;100.00;100088.31;4992368;28;20511;-78
2024/01/14 08:25:54;;;;;;;0.40;0.40;;;;;;;-1.30;100.00;100146.84;5022678;28;20037;-78
2024/01/14 08:28:19;;;;;;;0.40;0.40;;;;;;;-1.66;100.00;100148.66;5023528;28;20044;-78
2024/01/14 08:30:45;;;;;;;1.05;1.05;;;;;;;-1.50;100.00;100146.88;5015023;28;20049;-78
2024/01/14 08:33:11;;;;;;;3.25;3.15;;;;;;;-1.55;100.00;100076.28;5021062;28;20059;-78
2024/01/14 08:35:36;;;;;;;4.68;4.47;;;;;;;-1.22;100.00;100136.88;5020995;28;20136;-78
2024/01/14 08:38:02;;;;;;;31.45;11.25;;;;;;;-1.61;100.00;100060.63;5025037;28;20057;-77
2024/01/14 08:40:29;;;;;;;1.15;1.15;;;;;;;-1.29;100.00;100112.56;5034370;28;20033;-77
2024/01/14 08:42:55;;;;;;;16.73;12.70;;;;;;;-1.27;100.00;100062.91;5034924;28;20046;-78
2024/01/14 08:45:20;;;;;;;0.47;0.47;;;;;;;-1.58;100.00;100018.72;5020032;28;20127;-83
2024/01/14 08:47:46;;;;;;;21.58;17.02;;;;;;;-0.97;100.00;100115.63;5001344;28;20049;-80
2024/01/14 08:50:11;;;;;;;2.53;2.42;;;;;;;-1.51;100.00;100001.00;5000319;28;20457;-78
2024/01/14 08:52:37;;;;;;;11.30;10.35;;;;;;;-0.87;100.00;100123.78;5015278;28;21294;-78
2024/01/14 08:55:08;;;;;;;2.42;2.33;;;;;;;-0.38;100.00;100137.75;5002650;28;23836;-76
2024/01/14 08:57:34;;;;;;;0.30;0.30;;;;;;;-0.97;100.00;100058.97;5023437;28;20045;-79
2024/01/14 09:00:04;;;;;;;2.63;2.17;;;;;;;-0.44;100.00;100106.59;5030113;28;20114;-77
2024/01/14 09:02:29;;;;;;;0.50;0.50;;;;;;;-0.33;100.00;100125.94;5026512;28;20570;-78
2024/01/14 09:04:55;;;;;;;3.17;3.00;;;;;;;-1.01;100.00;100015.88;5029780;28;20025;-77
2024/01/14 09:07:20;;;;;;;8.00;7.45;;;;;;;-0.73;100.00;100134.63;5024680;28;20033;-79
2024/01/14 09:09:48;;;;;;;0.30;0.30;;;;;;;-0.83;100.00;100034.63;5026522;28;20037;-78
2024/01/14 09:12:14;;;;;;;1.08;1.08;;;;;;;-0.36;100.00;100066.50;5025850;28;20489;-77
2024/01/14 09:14:40;;;;;;;2.10;2.03;;;;;;;-0.25;100.00;100054.91;5016531;28;20123;-76
2024/01/14 09:17:07;;;;;;;2.35;2.25;;;;;;;-0.32;100.00;100003.06;5038046;28;20392;-78
2024/01/14 09:19:32;;;;;;;1.48;1.40;;;;;;;-0.10;100.00;100033.97;5031784;28;20404;-81
2024/01/14 09:21:58;;;;;;;0.88;0.88;;;;;;;0.41;100.00;100102.88;5022379;28;20046;-76
2024/01/14 09:24:24;;;;;;;3.00;2.88;;;;;;;0.05;100.00;100051.72;5018949;28;20057;-76
2024/01/14 09:26:50;;;;;;;0.70;0.70;;;;;;;0.40;100.00;100098.56;5016974;28;20049;-78
2024/01/14 09:29:15;;;;;;;0.60;0.60;;;;;;;0.03;100.00;99999.19;5022656;28;20069;-77
2024/01/14 09:31:41;;;;;;;5.85;3.33;;;;;;;0.25;100.00;99971.56;5024206;28;20041;-76
2024/01/14 09:34:06;;;;;;;0.45;0.45;;;;;;;0.19;100.00;99959.34;5017809;28;20049;-76
2024/01/14 09:36:32;;;;;;;0.50;0.50;;;;;;;1.13;100.00;100073.47;5020114;28;20132;-77
2024/01/14 09:38:58;;;;;;;7.05;6.53;;;;;;;0.61;100.00;99977.09;5022322;28;20041;-77
2024/01/14 09:41:42;;;;;;;0.40;0.40;;;;;;;1.30;100.00;100058.50;5022490;28;20049;-75
2024/01/14 09:44:11;;;;;;;0.75;0.40;;;;;;;0.96;100.00;100009.22;5020467;28;20041;-76
2024/01/14 09:46:36;;;;;;;2.53;2.42;;;;;;;1.05;100.00;100057.69;5024596;28;20132;-76
2024/01/14 09:49:02;;;;;;;0.30;0.30;;;;;;;0.71;100.00;99950.72;5018373;28;20057;-77
2024/01/14 09:51:30;;;;;;;6.90;6.00;;;;;;;1.31;100.00;100024.94;5003023;28;20045;-77
2024/01/14 09:53:58;;;;;;;0.82;0.82;;;;;;;1.08;100.00;99979.41;5021323;28;20376;-77
2024/01/14 09:56:24;;;;;;;1.10;1.02;;;;;;;0.87;100.00;99958.94;5015263;28;20072;-78
2024/01/14 09:58:53;;;;;;;1.13;0.95;;;;;;;1.11;100.00;99966.59;5025907;28;20129;-77
2024/01/14 10:01:21;;;;;;;0.30;0.30;;;;;;;1.22;100.00;99950.59;5019690;28;20084;-76
2024/01/14 10:03:49;;;;;;;2.25;2.08;;;;;;;1.68;100.00;100041.56;5017927;28;20045;-76
2024/01/14 10:06:15;;;;;;;3.03;2.92;;;;;;;1.44;100.00;100032.22;5021566;28;20124;-76
2024/01/14 10:08:40;;;;;;;3.25;3.13;;;;;;;1.60;100.00;100019.78;5015496;28;20387;-75
2024/01/14 10:11:06;;;;;;;0.55;0.55;;;;;;;0.83;100.00;99883.97;5019805;28;20087;-76
2024/01/14 10:13:33;;;;;;;2.85;2.75;;;;;;;0.79;100.00;99909.66;5015263;28;20037;-77
2024/01/14 10:15:59;;;;;;;0.40;0.40;;;;;;;1.01;100.00;99996.44;5014953;28;20065;-77
2024/01/14 10:18:26;;;;;;;1.10;1.10;;;;;;;1.49;100.00;100003.94;5014313;28;20079;-80
2024/01/14 10:20:51;;;;;;;0.40;0.40;;;;;;;1.53;100.00;100002.34;5015352;28;20061;-79
2024/01/14 10:23:17;;;;;;;0.60;0.60;;;;;;;1.62;100.00;99975.03;5016740;28;20696;-77
2024/01/14 10:25:44;;;;;;;1.05;1.02;;;;;;;1.29;100.00;99961.09;5017319;28;20038;-78
2024/01/14 10:28:11;;;;;;;0.38;0.38;;;;;;;1.01;100.00;99886.25;5019841;28;20755;-76
2024/01/14 10:30:36;;;;;;;0.65;0.65;;;;;;;1.14;100.00;99873.69;5016997;28;22818;-79
2024/01/14 10:33:03;;;;;;;0.63;0.63;;;;;;;1.89;100.00;99951.63;5017823;28;20053;-79
2024/01/14 10:35:29;;;;;;;0.30;0.30;;;;;;;1.64;100.00;99900.97;5018460;28;20061;-75
2024/01/14 10:37:55;;;;;;;0.30;0.30;;;;;;;1.59;100.00;99847.34;5018053;28;20168;-76
2024/01/14 10:40:22;;;;;;;0.40;0.40;;;;;;;2.21;100.00;99940.41;4983970;28;20615;-78
2024/01/14 10:42:47;;;;;;;1.70;1.60;;;;;;;2.26;100.00;99972.47;4991191;28;20050;-76
2024/01/14 10:45:13;;;;;;;3.88;3.50;;;;;;;2.50;100.00;99973.06;4998583;28;20059;-76
2024/01/14 10:47:47;;;;;;;1.02;1.02;;;;;;;2.13;100.00;99967.78;5011479;28;20636;-76
2024/01/14 10:50:17;;;;;;;3.13;2.38;;;;;;;2.29;100.00;99862.13;5009925;28;20050;-76
2024/01/14 10:52:49;;;;;;;1.05;0.75;;;;;;;2.82;100.00;99938.44;5000862;28;20034;-73
2024/01/14 10:55:34;;;;;;;0.77;0.77;;;;;;;2.64;100.00;99923.34;5008354;28;20046;-78
2024/01/14 10:58:03;;;;;;;0.40;0.40;;;;;;;3.25;100.00;99939.41;4987290;28;20504;-77
2024/01/14 11:00:35;;;;;;;0.30;0.30;;;;;;;2.62;100.00;99847.31;4982194;28;20553;-80
2024/01/14 11:03:05;;;;;;;1.95;1.80;;;;;;;3.71;100.00;99924.81;5008475;28;20046;-77
2024/01/14 11:05:33;;;;;;;4.13;3.83;;;;;;;3.32;100.00;99877.34;5007058;28;20082;-76
2024/01/14 11:08:02;;;;;;;2.17;1.95;;;;;;;4.02;100.00;99906.38;5008859;28;20030;-77
2024/01/14 11:10:28;;;;;;;4.40;4.15;;;;;;;4.04;100.00;99864.00;5008825;28;20034;-77
2024/01/14 11:13:23;;;;;;;0.30;0.30;;;;;;;4.43;100.00;99919.22;5000790;28;20058;-76
2024/01/14 11:15:54;;;;;;;2.53;2.42;;;;;;;4.53;100.00;99914.16;4996682;28;20057;-72